Aeroporto :
LOGIN :

Iscrizione | Disclaimer

   EN    FR    IT 

 










Sommario :    VFR   VFR Marginale   IFR   IFR Intensivo   IFR Molto Intensivo
Visibilità : 
Base nubi : 
>= 8 km
>= 3000ft
5 / 8 km
1000 / 3000 ft
1500m / 5 km
500 / 1000 ft
800 / 1500m
200 / 500 ft
< 800m
< 200 ft
Simboli :   Temporali  Nebbia  Neve Forte  Precipitazioni Forti  Vento > 20 kt
SIGMETs :   Varie  Temporali  Ghiacco  Turbolenza  Onda orograficha  Ceneri Vulcaniche






- Altitudine del aeroporto : 1058 ft
- Codice IATA : SCN


EDDR - Saarbrücken

ULTIMO METAR :
  • 171220Z AUTO 23004KT 210V320 9999 -SHRA FEW020 SCT035 FEW///TCU 06/02 Q1011 TEMPO SHRA

METARs OBSOLETI :
  • 171150Z AUTO 31014KT 9999 -SHRA FEW022 BKN042 BKN///TCU 07/01 Q1011 TEMPO SHRA
  • 171120Z AUTO VRB03KT 9999 -SHRA SCT045 FEW///TCU 09/M01 Q1011 TEMPO 29012KT SHRA
  • 171050Z AUTO 29007KT 260V330 9999 FEW039 09/M00 Q1011 TEMPO SHRA
  • 171020Z AUTO 31008KT 270V350 9999 BKN035 08/01 Q1011 TEMPO SHRA
  • 170950Z AUTO 30010KT 9999 FEW028 08/01 Q1011 NOSIG
  • 170920Z AUTO 30008KT 250V350 9999 FEW026 07/02 Q1011 NOSIG
  • 170850Z AUTO 31009KT 280V350 9999 FEW020 07/02 Q1011 NOSIG
  • 170820Z AUTO 30009KT 9999 SCT019 06/02 Q1011 NOSIG
  • 170750Z AUTO 30006KT 260V350 9999 BKN017 06/02 Q1011 NOSIG

TAF TAF EDDR
Valido dal 17 a 12 ore il 18 a 12 ore UTC


171100Z 1712/1812 29007KT 9999 BKN030
TEMPO 1712/1720 SHRA BKN020CB
PROB30
TEMPO 1712/1718 4000 TSRA BKN015CB
TEMPO 1800/1807 BKN006
PROB30
TEMPO 1802/1805 3000 -DZ BR BKN004
BECMG 1806/1808 01006KT



MetMap, La meteo Aeronautica in un colpo d'occhio ! - Copyright ORBIFLY Dicembre 2007 - Disclaimer

ORBIFLY MET'MAP TEAM :

Programmazione e sviluppo : Alexandra Zaïnal
Concezione : Baudouin d'Aumeries
Supporto tecnico e logistico : Manuel Goepfert
Aiuto : Marc-Olivier Méhu
Aiuto per la traduzione : Arnaldo La Scala




FONTI E CREDITI :

   NOAA